sensor_id;sensor_type;location;lat;lon;timestamp;P1;durP1;ratioP1;P2;durP2;ratioP2
51030;SDS011;37058;41.442;23.240;2022-10-18T00:01:53;7.13;;;3.77;;
51030;SDS011;37058;41.442;23.240;2022-10-18T00:04:19;8.17;;;4.67;;
51030;SDS011;37058;41.442;23.240;2022-10-18T00:06:45;9.27;;;4.43;;
51030;SDS011;37058;41.442;23.240;2022-10-18T00:09:11;5.53;;;3.70;;
51030;SDS011;37058;41.442;23.240;2022-10-18T00:11:37;5.27;;;3.27;;
51030;SDS011;37058;41.442;23.240;2022-10-18T00:14:03;12.80;;;3.57;;
51030;SDS011;37058;41.442;23.240;2022-10-18T00:16:29;7.87;;;4.10;;
51030;SDS011;37058;41.442;23.240;2022-10-18T00:18:55;5.83;;;3.30;;
51030;SDS011;37058;41.442;23.240;2022-10-18T00:21:22;5.60;;;3.10;;
51030;SDS011;37058;41.442;23.240;2022-10-18T00:23:49;4.90;;;2.90;;
51030;SDS011;37058;41.442;23.240;2022-10-18T00:26:18;6.03;;;3.43;;
51030;SDS011;37058;41.442;23.240;2022-10-18T00:28:46;8.40;;;3.50;;
51030;SDS011;37058;41.442;23.240;2022-10-18T00:31:27;6.93;;;3.65;;
51030;SDS011;37058;41.442;23.240;2022-10-18T00:33:57;7.78;;;3.58;;
51030;SDS011;37058;41.442;23.240;2022-10-18T00:36:26;6.22;;;4.22;;
51030;SDS011;37058;41.442;23.240;2022-10-18T00:38:55;6.47;;;4.20;;
51030;SDS011;37058;41.442;23.240;2022-10-18T00:41:23;8.43;;;4.30;;
51030;SDS011;37058;41.442;23.240;2022-10-18T00:46:42;6.90;;;4.43;;
51030;SDS011;37058;41.442;23.240;2022-10-18T00:49:14;5.07;;;3.28;;
51030;SDS011;37058;41.442;23.240;2022-10-18T00:51:55;9.30;;;3.93;;
51030;SDS011;37058;41.442;23.240;2022-10-18T00:54:30;6.07;;;3.77;;
51030;SDS011;37058;41.442;23.240;2022-10-18T00:57:00;6.40;;;3.37;;
51030;SDS011;37058;41.442;23.240;2022-10-18T00:59:27;6.10;;;3.77;;
51030;SDS011;37058;41.442;23.240;2022-10-18T01:01:54;6.27;;;3.73;;
51030;SDS011;37058;41.442;23.240;2022-10-18T01:04:20;6.43;;;3.67;;
51030;SDS011;37058;41.442;23.240;2022-10-18T01:09:49;5.47;;;3.57;;
51030;SDS011;37058;41.442;23.240;2022-10-18T01:18:46;11.93;;;3.00;;
51030;SDS011;37058;41.442;23.240;2022-10-18T01:21:44;6.00;;;3.23;;
51030;SDS011;37058;41.442;23.240;2022-10-18T01:33:14;5.07;;;2.70;;
51030;SDS011;37058;41.442;23.240;2022-10-18T01:39:05;3.80;;;2.27;;
51030;SDS011;37058;41.442;23.240;2022-10-18T01:41:39;8.13;;;3.37;;
51030;SDS011;37058;41.442;23.240;2022-10-18T01:44:10;7.93;;;3.70;;
51030;SDS011;37058;41.442;23.240;2022-10-18T01:46:43;6.33;;;3.70;;
51030;SDS011;37058;41.442;23.240;2022-10-18T01:49:10;6.50;;;3.50;;
51030;SDS011;37058;41.442;23.240;2022-10-18T01:51:36;6.13;;;3.67;;
51030;SDS011;37058;41.442;23.240;2022-10-18T01:54:02;6.07;;;3.47;;
51030;SDS011;37058;41.442;23.240;2022-10-18T02:10:43;5.80;;;3.73;;
51030;SDS011;37058;41.442;23.240;2022-10-18T02:13:14;7.43;;;3.50;;
51030;SDS011;37058;41.442;23.240;2022-10-18T02:15:48;6.83;;;2.93;;
51030;SDS011;37058;41.442;23.240;2022-10-18T02:18:22;6.17;;;2.87;;
51030;SDS011;37058;41.442;23.240;2022-10-18T02:20:55;4.73;;;3.00;;
51030;SDS011;37058;41.442;23.240;2022-10-18T02:23:23;4.93;;;2.90;;
51030;SDS011;37058;41.442;23.240;2022-10-18T02:25:50;5.20;;;2.73;;
51030;SDS011;37058;41.442;23.240;2022-10-18T02:28:17;5.73;;;2.73;;
51030;SDS011;37058;41.442;23.240;2022-10-18T02:30:46;5.53;;;3.13;;
51030;SDS011;37058;41.442;23.240;2022-10-18T02:36:39;6.40;;;2.70;;
51030;SDS011;37058;41.442;23.240;2022-10-18T02:39:19;4.00;;;2.37;;
51030;SDS011;37058;41.442;23.240;2022-10-18T02:41:54;6.73;;;3.10;;
51030;SDS011;37058;41.442;23.240;2022-10-18T02:44:21;5.43;;;3.30;;
51030;SDS011;37058;41.442;23.240;2022-10-18T02:46:47;6.53;;;3.13;;
51030;SDS011;37058;41.442;23.240;2022-10-18T02:49:13;4.73;;;2.67;;
51030;SDS011;37058;41.442;23.240;2022-10-18T02:51:39;3.27;;;2.57;;
51030;SDS011;37058;41.442;23.240;2022-10-18T02:54:05;4.73;;;2.93;;
51030;SDS011;37058;41.442;23.240;2022-10-18T02:56:32;5.80;;;3.57;;
51030;SDS011;37058;41.442;23.240;2022-10-18T02:58:59;4.87;;;2.50;;
51030;SDS011;37058;41.442;23.240;2022-10-18T03:01:25;5.53;;;2.90;;
51030;SDS011;37058;41.442;23.240;2022-10-18T03:03:51;10.07;;;3.60;;
51030;SDS011;37058;41.442;23.240;2022-10-18T03:06:17;7.00;;;3.40;;
51030;SDS011;37058;41.442;23.240;2022-10-18T03:08:43;10.67;;;4.83;;
51030;SDS011;37058;41.442;23.240;2022-10-18T03:11:09;10.53;;;4.70;;
51030;SDS011;37058;41.442;23.240;2022-10-18T03:13:35;7.63;;;3.20;;
51030;SDS011;37058;41.442;23.240;2022-10-18T03:16:01;7.90;;;3.70;;
51030;SDS011;37058;41.442;23.240;2022-10-18T03:18:27;4.67;;;3.17;;
51030;SDS011;37058;41.442;23.240;2022-10-18T03:20:53;5.17;;;3.03;;
51030;SDS011;37058;41.442;23.240;2022-10-18T03:23:19;4.93;;;3.57;;
51030;SDS011;37058;41.442;23.240;2022-10-18T03:25:45;6.67;;;3.30;;
51030;SDS011;37058;41.442;23.240;2022-10-18T03:28:11;6.50;;;3.93;;
51030;SDS011;37058;41.442;23.240;2022-10-18T03:30:37;5.67;;;3.60;;
51030;SDS011;37058;41.442;23.240;2022-10-18T03:33:03;6.13;;;4.13;;
51030;SDS011;37058;41.442;23.240;2022-10-18T03:35:30;4.93;;;3.83;;
51030;SDS011;37058;41.442;23.240;2022-10-18T03:37:56;5.77;;;3.43;;
51030;SDS011;37058;41.442;23.240;2022-10-18T03:40:22;4.73;;;3.10;;
51030;SDS011;37058;41.442;23.240;2022-10-18T03:42:48;5.20;;;3.47;;
51030;SDS011;37058;41.442;23.240;2022-10-18T03:45:14;10.87;;;5.40;;
51030;SDS011;37058;41.442;23.240;2022-10-18T03:47:39;6.33;;;3.70;;
51030;SDS011;37058;41.442;23.240;2022-10-18T03:50:05;7.27;;;4.20;;
51030;SDS011;37058;41.442;23.240;2022-10-18T03:52:32;6.67;;;3.90;;
51030;SDS011;37058;41.442;23.240;2022-10-18T03:54:57;8.27;;;4.67;;
51030;SDS011;37058;41.442;23.240;2022-10-18T03:57:23;10.73;;;3.43;;
51030;SDS011;37058;41.442;23.240;2022-10-18T03:59:49;7.30;;;3.37;;
51030;SDS011;37058;41.442;23.240;2022-10-18T04:02:15;13.37;;;4.40;;
51030;SDS011;37058;41.442;23.240;2022-10-18T04:04:41;7.37;;;3.87;;
51030;SDS011;37058;41.442;23.240;2022-10-18T04:07:07;11.07;;;4.87;;
51030;SDS011;37058;41.442;23.240;2022-10-18T04:09:33;13.63;;;5.97;;
51030;SDS011;37058;41.442;23.240;2022-10-18T04:11:58;8.70;;;5.57;;
51030;SDS011;37058;41.442;23.240;2022-10-18T04:14:24;6.20;;;4.07;;
51030;SDS011;37058;41.442;23.240;2022-10-18T04:16:50;8.93;;;5.33;;
51030;SDS011;37058;41.442;23.240;2022-10-18T04:19:16;17.00;;;10.00;;
51030;SDS011;37058;41.442;23.240;2022-10-18T04:21:42;14.03;;;7.20;;
51030;SDS011;37058;41.442;23.240;2022-10-18T04:24:08;10.20;;;4.17;;
51030;SDS011;37058;41.442;23.240;2022-10-18T04:26:34;12.77;;;6.20;;
51030;SDS011;37058;41.442;23.240;2022-10-18T04:28:59;15.57;;;6.97;;
51030;SDS011;37058;41.442;23.240;2022-10-18T04:31:25;9.47;;;5.70;;
51030;SDS011;37058;41.442;23.240;2022-10-18T04:33:51;10.90;;;6.07;;
51030;SDS011;37058;41.442;23.240;2022-10-18T04:36:17;11.87;;;5.53;;
51030;SDS011;37058;41.442;23.240;2022-10-18T04:38:43;13.90;;;5.83;;
51030;SDS011;37058;41.442;23.240;2022-10-18T04:41:09;10.47;;;5.20;;
51030;SDS011;37058;41.442;23.240;2022-10-18T04:43:35;14.57;;;5.83;;
51030;SDS011;37058;41.442;23.240;2022-10-18T04:46:01;7.77;;;4.40;;
51030;SDS011;37058;41.442;23.240;2022-10-18T04:48:27;8.73;;;5.37;;
51030;SDS011;37058;41.442;23.240;2022-10-18T04:50:53;11.93;;;4.73;;
51030;SDS011;37058;41.442;23.240;2022-10-18T04:53:19;14.00;;;5.27;;
51030;SDS011;37058;41.442;23.240;2022-10-18T04:55:46;11.30;;;4.97;;
51030;SDS011;37058;41.442;23.240;2022-10-18T04:58:13;10.27;;;5.70;;
51030;SDS011;37058;41.442;23.240;2022-10-18T05:00:41;11.70;;;4.87;;
51030;SDS011;37058;41.442;23.240;2022-10-18T05:03:07;10.40;;;5.07;;
51030;SDS011;37058;41.442;23.240;2022-10-18T05:05:36;16.23;;;5.80;;
51030;SDS011;37058;41.442;23.240;2022-10-18T05:08:02;15.87;;;7.13;;
51030;SDS011;37058;41.442;23.240;2022-10-18T05:10:28;14.40;;;7.50;;
51030;SDS011;37058;41.442;23.240;2022-10-18T05:12:54;10.70;;;5.80;;
51030;SDS011;37058;41.442;23.240;2022-10-18T05:15:20;14.03;;;6.67;;
51030;SDS011;37058;41.442;23.240;2022-10-18T05:17:46;12.13;;;6.03;;
51030;SDS011;37058;41.442;23.240;2022-10-18T05:20:11;12.27;;;6.00;;
51030;SDS011;37058;41.442;23.240;2022-10-18T05:22:37;15.10;;;8.60;;
51030;SDS011;37058;41.442;23.240;2022-10-18T05:25:03;14.87;;;7.73;;
51030;SDS011;37058;41.442;23.240;2022-10-18T05:27:30;13.80;;;6.43;;
51030;SDS011;37058;41.442;23.240;2022-10-18T05:29:56;14.17;;;8.03;;
51030;SDS011;37058;41.442;23.240;2022-10-18T05:32:22;14.77;;;7.23;;
51030;SDS011;37058;41.442;23.240;2022-10-18T05:34:47;17.97;;;11.33;;
51030;SDS011;37058;41.442;23.240;2022-10-18T05:37:13;12.73;;;6.83;;
51030;SDS011;37058;41.442;23.240;2022-10-18T05:39:39;13.47;;;5.57;;
51030;SDS011;37058;41.442;23.240;2022-10-18T05:42:05;12.17;;;5.67;;
51030;SDS011;37058;41.442;23.240;2022-10-18T05:44:32;11.60;;;6.30;;
51030;SDS011;37058;41.442;23.240;2022-10-18T05:46:58;9.27;;;4.40;;
51030;SDS011;37058;41.442;23.240;2022-10-18T05:49:24;8.33;;;5.63;;
51030;SDS011;37058;41.442;23.240;2022-10-18T05:51:50;10.30;;;5.27;;
51030;SDS011;37058;41.442;23.240;2022-10-18T05:54:16;12.63;;;5.60;;
51030;SDS011;37058;41.442;23.240;2022-10-18T05:56:42;9.67;;;4.87;;
51030;SDS011;37058;41.442;23.240;2022-10-18T05:59:10;6.27;;;4.03;;
51030;SDS011;37058;41.442;23.240;2022-10-18T06:01:36;9.60;;;5.13;;
51030;SDS011;37058;41.442;23.240;2022-10-18T06:04:04;5.73;;;4.33;;
51030;SDS011;37058;41.442;23.240;2022-10-18T06:06:30;10.17;;;3.63;;
51030;SDS011;37058;41.442;23.240;2022-10-18T06:08:57;6.10;;;4.20;;
51030;SDS011;37058;41.442;23.240;2022-10-18T06:11:24;7.03;;;3.80;;
51030;SDS011;37058;41.442;23.240;2022-10-18T06:13:50;7.03;;;3.20;;
51030;SDS011;37058;41.442;23.240;2022-10-18T06:16:17;6.53;;;3.80;;
51030;SDS011;37058;41.442;23.240;2022-10-18T06:18:49;8.73;;;3.93;;
51030;SDS011;37058;41.442;23.240;2022-10-18T06:21:20;10.13;;;3.97;;
51030;SDS011;37058;41.442;23.240;2022-10-18T06:23:52;8.60;;;5.23;;
51030;SDS011;37058;41.442;23.240;2022-10-18T06:26:21;11.53;;;4.27;;
51030;SDS011;37058;41.442;23.240;2022-10-18T06:28:48;5.93;;;3.83;;
51030;SDS011;37058;41.442;23.240;2022-10-18T06:31:14;9.20;;;4.13;;
51030;SDS011;37058;41.442;23.240;2022-10-18T06:33:40;5.43;;;4.00;;
51030;SDS011;37058;41.442;23.240;2022-10-18T06:36:09;8.57;;;5.00;;
51030;SDS011;37058;41.442;23.240;2022-10-18T06:38:40;6.97;;;5.07;;
51030;SDS011;37058;41.442;23.240;2022-10-18T06:41:07;5.30;;;4.33;;
51030;SDS011;37058;41.442;23.240;2022-10-18T06:43:34;10.30;;;4.27;;
51030;SDS011;37058;41.442;23.240;2022-10-18T06:46:01;6.10;;;3.93;;
51030;SDS011;37058;41.442;23.240;2022-10-18T06:48:30;8.97;;;4.63;;
51030;SDS011;37058;41.442;23.240;2022-10-18T06:50:58;6.53;;;3.90;;
51030;SDS011;37058;41.442;23.240;2022-10-18T06:53:27;7.07;;;4.25;;
51030;SDS011;37058;41.442;23.240;2022-10-18T06:56:03;6.18;;;4.60;;
51030;SDS011;37058;41.442;23.240;2022-10-18T06:58:32;6.07;;;4.67;;
51030;SDS011;37058;41.442;23.240;2022-10-18T07:01:04;7.53;;;4.20;;
51030;SDS011;37058;41.442;23.240;2022-10-18T07:03:35;8.00;;;4.35;;
51030;SDS011;37058;41.442;23.240;2022-10-18T07:06:02;10.23;;;4.78;;
51030;SDS011;37058;41.442;23.240;2022-10-18T07:08:30;4.85;;;3.08;;
51030;SDS011;37058;41.442;23.240;2022-10-18T07:10:57;5.78;;;3.97;;
51030;SDS011;37058;41.442;23.240;2022-10-18T07:13:23;4.55;;;3.55;;
51030;SDS011;37058;41.442;23.240;2022-10-18T07:16:02;6.93;;;4.50;;
51030;SDS011;37058;41.442;23.240;2022-10-18T07:18:36;5.45;;;4.05;;
51030;SDS011;37058;41.442;23.240;2022-10-18T07:21:05;6.53;;;3.85;;
51030;SDS011;37058;41.442;23.240;2022-10-18T07:23:34;7.60;;;4.47;;
51030;SDS011;37058;41.442;23.240;2022-10-18T07:26:03;6.57;;;4.50;;
51030;SDS011;37058;41.442;23.240;2022-10-18T07:28:41;9.77;;;5.85;;
51030;SDS011;37058;41.442;23.240;2022-10-18T07:31:08;8.85;;;5.80;;
51030;SDS011;37058;41.442;23.240;2022-10-18T07:33:35;9.70;;;6.40;;
51030;SDS011;37058;41.442;23.240;2022-10-18T07:36:05;13.13;;;8.60;;
51030;SDS011;37058;41.442;23.240;2022-10-18T07:38:32;13.68;;;8.82;;
51030;SDS011;37058;41.442;23.240;2022-10-18T07:40:59;15.82;;;9.55;;
51030;SDS011;37058;41.442;23.240;2022-10-18T07:43:27;14.07;;;9.23;;
51030;SDS011;37058;41.442;23.240;2022-10-18T07:45:54;10.98;;;7.35;;
51030;SDS011;37058;41.442;23.240;2022-10-18T07:48:22;11.52;;;7.75;;
51030;SDS011;37058;41.442;23.240;2022-10-18T07:50:49;13.82;;;8.00;;
51030;SDS011;37058;41.442;23.240;2022-10-18T07:53:15;12.30;;;8.70;;
51030;SDS011;37058;41.442;23.240;2022-10-18T07:55:41;15.40;;;9.32;;
51030;SDS011;37058;41.442;23.240;2022-10-18T07:58:08;16.35;;;9.10;;
51030;SDS011;37058;41.442;23.240;2022-10-18T08:00:35;16.55;;;9.70;;
51030;SDS011;37058;41.442;23.240;2022-10-18T08:03:01;14.68;;;8.73;;
51030;SDS011;37058;41.442;23.240;2022-10-18T08:05:27;21.60;;;8.52;;
51030;SDS011;37058;41.442;23.240;2022-10-18T08:07:53;19.00;;;9.98;;
51030;SDS011;37058;41.442;23.240;2022-10-18T08:10:20;13.70;;;8.48;;
51030;SDS011;37058;41.442;23.240;2022-10-18T08:12:46;15.15;;;8.00;;
51030;SDS011;37058;41.442;23.240;2022-10-18T08:15:12;14.07;;;8.02;;
51030;SDS011;37058;41.442;23.240;2022-10-18T08:17:38;12.80;;;6.88;;
51030;SDS011;37058;41.442;23.240;2022-10-18T08:20:04;10.40;;;6.95;;
51030;SDS011;37058;41.442;23.240;2022-10-18T08:22:30;8.80;;;5.43;;
51030;SDS011;37058;41.442;23.240;2022-10-18T08:24:56;9.23;;;5.35;;
51030;SDS011;37058;41.442;23.240;2022-10-18T08:27:22;10.97;;;6.90;;
51030;SDS011;37058;41.442;23.240;2022-10-18T08:29:50;17.83;;;6.67;;
51030;SDS011;37058;41.442;23.240;2022-10-18T08:32:17;9.10;;;6.10;;
51030;SDS011;37058;41.442;23.240;2022-10-18T08:34:43;10.17;;;6.97;;
51030;SDS011;37058;41.442;23.240;2022-10-18T08:37:09;10.43;;;5.10;;
51030;SDS011;37058;41.442;23.240;2022-10-18T08:39:35;9.07;;;4.90;;
51030;SDS011;37058;41.442;23.240;2022-10-18T08:45:09;7.45;;;4.38;;
51030;SDS011;37058;41.442;23.240;2022-10-18T08:47:43;8.50;;;4.60;;
51030;SDS011;37058;41.442;23.240;2022-10-18T08:50:17;7.17;;;4.33;;
51030;SDS011;37058;41.442;23.240;2022-10-18T08:55:44;28.97;;;20.57;;
51030;SDS011;37058;41.442;23.240;2022-10-18T09:04:08;7.80;;;4.50;;
51030;SDS011;37058;41.442;23.240;2022-10-18T09:18:10;10.10;;;4.83;;
51030;SDS011;37058;41.442;23.240;2022-10-18T09:26:45;7.70;;;4.50;;
51030;SDS011;37058;41.442;23.240;2022-10-18T09:29:37;7.57;;;5.05;;
51030;SDS011;37058;41.442;23.240;2022-10-18T09:32:43;8.05;;;4.60;;
51030;SDS011;37058;41.442;23.240;2022-10-18T09:35:47;11.45;;;4.40;;
51030;SDS011;37058;41.442;23.240;2022-10-18T09:38:20;6.82;;;3.78;;
51030;SDS011;37058;41.442;23.240;2022-10-18T09:40:59;8.18;;;4.20;;
51030;SDS011;37058;41.442;23.240;2022-10-18T09:43:41;6.75;;;4.03;;
51030;SDS011;37058;41.442;23.240;2022-10-18T09:46:56;8.90;;;4.38;;
51030;SDS011;37058;41.442;23.240;2022-10-18T09:50:12;9.05;;;4.95;;
51030;SDS011;37058;41.442;23.240;2022-10-18T09:53:20;9.02;;;4.40;;
51030;SDS011;37058;41.442;23.240;2022-10-18T09:56:09;9.23;;;5.03;;
51030;SDS011;37058;41.442;23.240;2022-10-18T09:58:43;8.27;;;4.63;;
51030;SDS011;37058;41.442;23.240;2022-10-18T10:01:15;6.75;;;4.72;;
51030;SDS011;37058;41.442;23.240;2022-10-18T10:03:51;8.63;;;3.80;;
51030;SDS011;37058;41.442;23.240;2022-10-18T10:06:25;6.45;;;3.50;;
51030;SDS011;37058;41.442;23.240;2022-10-18T10:09:15;8.02;;;4.10;;
51030;SDS011;37058;41.442;23.240;2022-10-18T10:11:45;7.47;;;5.03;;
51030;SDS011;37058;41.442;23.240;2022-10-18T10:19:29;8.73;;;4.20;;
51030;SDS011;37058;41.442;23.240;2022-10-18T10:22:23;8.20;;;3.90;;
51030;SDS011;37058;41.442;23.240;2022-10-18T10:25:04;6.13;;;3.55;;
51030;SDS011;37058;41.442;23.240;2022-10-18T10:30:21;7.40;;;3.80;;
51030;SDS011;37058;41.442;23.240;2022-10-18T10:32:59;6.15;;;3.42;;
51030;SDS011;37058;41.442;23.240;2022-10-18T10:38:00;6.43;;;3.50;;
51030;SDS011;37058;41.442;23.240;2022-10-18T10:40:32;13.07;;;2.97;;
51030;SDS011;37058;41.442;23.240;2022-10-18T10:46:03;5.45;;;3.55;;
51030;SDS011;37058;41.442;23.240;2022-10-18T10:48:44;5.80;;;3.38;;
51030;SDS011;37058;41.442;23.240;2022-10-18T10:51:16;4.43;;;2.42;;
51030;SDS011;37058;41.442;23.240;2022-10-18T10:54:00;4.45;;;2.25;;
51030;SDS011;37058;41.442;23.240;2022-10-18T10:59:49;5.05;;;2.13;;
51030;SDS011;37058;41.442;23.240;2022-10-18T11:02:19;3.53;;;2.08;;
51030;SDS011;37058;41.442;23.240;2022-10-18T11:05:18;3.20;;;1.95;;
51030;SDS011;37058;41.442;23.240;2022-10-18T11:07:51;4.05;;;2.10;;
51030;SDS011;37058;41.442;23.240;2022-10-18T11:10:23;2.95;;;2.10;;
51030;SDS011;37058;41.442;23.240;2022-10-18T11:12:55;12.95;;;2.63;;
51030;SDS011;37058;41.442;23.240;2022-10-18T11:16:52;3.63;;;2.03;;
51030;SDS011;37058;41.442;23.240;2022-10-18T11:19:36;3.65;;;1.50;;
51030;SDS011;37058;41.442;23.240;2022-10-18T11:22:44;3.42;;;1.95;;
51030;SDS011;37058;41.442;23.240;2022-10-18T11:32:04;3.95;;;1.85;;
51030;SDS011;37058;41.442;23.240;2022-10-18T11:35:25;4.10;;;1.88;;
51030;SDS011;37058;41.442;23.240;2022-10-18T11:38:35;4.75;;;2.85;;
51030;SDS011;37058;41.442;23.240;2022-10-18T11:41:30;4.00;;;2.70;;
51030;SDS011;37058;41.442;23.240;2022-10-18T11:43:57;4.43;;;2.78;;
51030;SDS011;37058;41.442;23.240;2022-10-18T11:46:36;8.23;;;2.60;;
51030;SDS011;37058;41.442;23.240;2022-10-18T11:58:39;3.85;;;2.05;;
51030;SDS011;37058;41.442;23.240;2022-10-18T12:01:12;4.53;;;2.53;;
51030;SDS011;37058;41.442;23.240;2022-10-18T12:06:47;3.85;;;2.00;;
51030;SDS011;37058;41.442;23.240;2022-10-18T12:09:26;3.00;;;1.67;;
51030;SDS011;37058;41.442;23.240;2022-10-18T12:12:06;2.85;;;1.90;;
51030;SDS011;37058;41.442;23.240;2022-10-18T12:14:43;3.45;;;1.77;;
51030;SDS011;37058;41.442;23.240;2022-10-18T12:20:23;3.50;;;1.92;;
51030;SDS011;37058;41.442;23.240;2022-10-18T12:25:41;4.57;;;2.72;;
51030;SDS011;37058;41.442;23.240;2022-10-18T12:31:50;4.93;;;3.08;;
51030;SDS011;37058;41.442;23.240;2022-10-18T12:34:26;8.02;;;3.75;;
51030;SDS011;37058;41.442;23.240;2022-10-18T12:37:13;41.35;;;14.65;;
51030;SDS011;37058;41.442;23.240;2022-10-18T12:40:22;10.85;;;4.40;;
51030;SDS011;37058;41.442;23.240;2022-10-18T12:43:08;8.95;;;4.05;;
51030;SDS011;37058;41.442;23.240;2022-10-18T12:45:50;7.40;;;4.18;;
51030;SDS011;37058;41.442;23.240;2022-10-18T12:53:42;8.30;;;4.20;;
51030;SDS011;37058;41.442;23.240;2022-10-18T12:56:37;7.35;;;3.35;;
51030;SDS011;37058;41.442;23.240;2022-10-18T13:09:23;8.77;;;2.20;;
51030;SDS011;37058;41.442;23.240;2022-10-18T13:11:55;11.48;;;3.25;;
51030;SDS011;37058;41.442;23.240;2022-10-18T13:18:18;4.40;;;2.38;;
51030;SDS011;37058;41.442;23.240;2022-10-18T13:25:02;4.15;;;1.70;;
51030;SDS011;37058;41.442;23.240;2022-10-18T13:27:33;5.65;;;1.77;;
51030;SDS011;37058;41.442;23.240;2022-10-18T13:33:44;1.65;;;1.20;;
51030;SDS011;37058;41.442;23.240;2022-10-18T13:41:22;2.95;;;1.42;;
51030;SDS011;37058;41.442;23.240;2022-10-18T13:51:51;2.20;;;1.23;;
51030;SDS011;37058;41.442;23.240;2022-10-18T14:06:35;2.60;;;1.25;;
51030;SDS011;37058;41.442;23.240;2022-10-18T14:09:16;2.17;;;1.20;;
51030;SDS011;37058;41.442;23.240;2022-10-18T14:11:51;2.85;;;1.30;;
51030;SDS011;37058;41.442;23.240;2022-10-18T14:14:56;2.72;;;1.73;;
51030;SDS011;37058;41.442;23.240;2022-10-18T14:17:49;2.10;;;1.25;;
51030;SDS011;37058;41.442;23.240;2022-10-18T14:20:25;3.10;;;1.63;;
51030;SDS011;37058;41.442;23.240;2022-10-18T14:23:11;4.15;;;2.72;;
51030;SDS011;37058;41.442;23.240;2022-10-18T14:25:42;3.78;;;1.40;;
51030;SDS011;37058;41.442;23.240;2022-10-18T14:33:37;1.90;;;1.38;;
51030;SDS011;37058;41.442;23.240;2022-10-18T14:36:13;2.58;;;1.48;;
51030;SDS011;37058;41.442;23.240;2022-10-18T14:47:28;6.07;;;1.50;;
51030;SDS011;37058;41.442;23.240;2022-10-18T14:49:51;2.97;;;1.45;;
51030;SDS011;37058;41.442;23.240;2022-10-18T14:52:19;2.50;;;1.60;;
51030;SDS011;37058;41.442;23.240;2022-10-18T14:54:55;4.70;;;1.70;;
51030;SDS011;37058;41.442;23.240;2022-10-18T14:57:31;2.92;;;1.77;;
51030;SDS011;37058;41.442;23.240;2022-10-18T15:00:06;12.70;;;3.60;;
51030;SDS011;37058;41.442;23.240;2022-10-18T15:02:41;8.60;;;3.20;;
51030;SDS011;37058;41.442;23.240;2022-10-18T15:05:09;8.00;;;4.22;;
51030;SDS011;37058;41.442;23.240;2022-10-18T15:07:47;7.72;;;6.25;;
51030;SDS011;37058;41.442;23.240;2022-10-18T15:10:23;4.80;;;3.47;;
51030;SDS011;37058;41.442;23.240;2022-10-18T15:12:58;3.45;;;2.65;;
51030;SDS011;37058;41.442;23.240;2022-10-18T15:15:28;6.50;;;3.88;;
51030;SDS011;37058;41.442;23.240;2022-10-18T15:17:57;5.13;;;2.70;;
51030;SDS011;37058;41.442;23.240;2022-10-18T15:25:59;2.83;;;1.98;;
51030;SDS011;37058;41.442;23.240;2022-10-18T15:28:38;6.65;;;4.05;;
51030;SDS011;37058;41.442;23.240;2022-10-18T15:34:08;18.00;;;11.38;;
51030;SDS011;37058;41.442;23.240;2022-10-18T15:36:44;6.30;;;3.95;;
51030;SDS011;37058;41.442;23.240;2022-10-18T15:39:19;3.80;;;2.45;;
51030;SDS011;37058;41.442;23.240;2022-10-18T15:41:54;3.25;;;1.90;;
51030;SDS011;37058;41.442;23.240;2022-10-18T15:55:41;5.45;;;3.25;;
51030;SDS011;37058;41.442;23.240;2022-10-18T15:57:47;7.30;;;3.00;;
51030;SDS011;37058;41.442;23.240;2022-10-18T16:00:16;5.45;;;2.47;;
51030;SDS011;37058;41.442;23.240;2022-10-18T16:02:44;9.43;;;3.80;;
51030;SDS011;37058;41.442;23.240;2022-10-18T16:05:13;9.50;;;3.17;;
51030;SDS011;37058;41.442;23.240;2022-10-18T16:07:43;9.27;;;3.22;;
51030;SDS011;37058;41.442;23.240;2022-10-18T16:10:12;5.32;;;3.38;;
51030;SDS011;37058;41.442;23.240;2022-10-18T16:12:39;6.00;;;2.60;;
51030;SDS011;37058;41.442;23.240;2022-10-18T16:15:05;7.35;;;4.15;;
51030;SDS011;37058;41.442;23.240;2022-10-18T16:17:32;22.95;;;10.38;;
51030;SDS011;37058;41.442;23.240;2022-10-18T16:19:58;25.92;;;11.80;;
51030;SDS011;37058;41.442;23.240;2022-10-18T16:22:23;15.70;;;8.93;;
51030;SDS011;37058;41.442;23.240;2022-10-18T16:24:49;11.40;;;6.57;;
51030;SDS011;37058;41.442;23.240;2022-10-18T16:27:16;11.68;;;5.25;;
51030;SDS011;37058;41.442;23.240;2022-10-18T16:29:43;7.22;;;3.63;;
51030;SDS011;37058;41.442;23.240;2022-10-18T16:32:09;8.00;;;4.85;;
51030;SDS011;37058;41.442;23.240;2022-10-18T16:34:34;11.35;;;3.88;;
51030;SDS011;37058;41.442;23.240;2022-10-18T16:37:00;24.17;;;12.98;;
51030;SDS011;37058;41.442;23.240;2022-10-18T16:39:26;27.23;;;16.85;;
51030;SDS011;37058;41.442;23.240;2022-10-18T16:41:54;11.32;;;7.03;;
51030;SDS011;37058;41.442;23.240;2022-10-18T16:44:20;6.82;;;4.05;;
51030;SDS011;37058;41.442;23.240;2022-10-18T16:46:46;8.20;;;4.32;;
51030;SDS011;37058;41.442;23.240;2022-10-18T16:49:19;9.65;;;4.43;;
51030;SDS011;37058;41.442;23.240;2022-10-18T16:51:50;16.65;;;9.30;;
51030;SDS011;37058;41.442;23.240;2022-10-18T16:54:18;20.88;;;10.68;;
51030;SDS011;37058;41.442;23.240;2022-10-18T16:56:44;18.38;;;11.60;;
51030;SDS011;37058;41.442;23.240;2022-10-18T16:59:23;22.98;;;14.15;;
51030;SDS011;37058;41.442;23.240;2022-10-18T17:01:53;52.83;;;29.03;;
51030;SDS011;37058;41.442;23.240;2022-10-18T17:04:19;31.37;;;19.87;;
51030;SDS011;37058;41.442;23.240;2022-10-18T17:06:45;25.33;;;15.77;;
51030;SDS011;37058;41.442;23.240;2022-10-18T17:09:13;21.50;;;10.50;;
51030;SDS011;37058;41.442;23.240;2022-10-18T17:11:39;15.13;;;8.93;;
51030;SDS011;37058;41.442;23.240;2022-10-18T17:14:06;20.37;;;10.03;;
51030;SDS011;37058;41.442;23.240;2022-10-18T17:16:33;18.13;;;9.50;;
51030;SDS011;37058;41.442;23.240;2022-10-18T17:19:03;24.47;;;12.10;;
51030;SDS011;37058;41.442;23.240;2022-10-18T17:21:32;29.13;;;13.93;;
51030;SDS011;37058;41.442;23.240;2022-10-18T17:23:58;26.97;;;12.47;;
51030;SDS011;37058;41.442;23.240;2022-10-18T17:26:28;39.13;;;16.90;;
51030;SDS011;37058;41.442;23.240;2022-10-18T17:28:56;34.13;;;17.03;;
51030;SDS011;37058;41.442;23.240;2022-10-18T17:31:29;41.47;;;18.83;;
51030;SDS011;37058;41.442;23.240;2022-10-18T17:33:55;45.67;;;24.03;;
51030;SDS011;37058;41.442;23.240;2022-10-18T17:36:22;55.23;;;27.30;;
51030;SDS011;37058;41.442;23.240;2022-10-18T17:38:49;58.23;;;26.40;;
51030;SDS011;37058;41.442;23.240;2022-10-18T17:41:17;46.20;;;22.40;;
51030;SDS011;37058;41.442;23.240;2022-10-18T17:43:43;24.67;;;12.33;;
51030;SDS011;37058;41.442;23.240;2022-10-18T17:46:10;19.43;;;10.27;;
51030;SDS011;37058;41.442;23.240;2022-10-18T17:48:37;17.53;;;9.00;;
51030;SDS011;37058;41.442;23.240;2022-10-18T17:51:06;14.53;;;8.17;;
51030;SDS011;37058;41.442;23.240;2022-10-18T17:53:38;18.10;;;7.30;;
51030;SDS011;37058;41.442;23.240;2022-10-18T17:56:04;15.80;;;6.60;;
51030;SDS011;37058;41.442;23.240;2022-10-18T17:58:31;13.83;;;5.17;;
51030;SDS011;37058;41.442;23.240;2022-10-18T18:01:11;9.20;;;5.00;;
51030;SDS011;37058;41.442;23.240;2022-10-18T18:03:40;12.77;;;5.87;;
51030;SDS011;37058;41.442;23.240;2022-10-18T18:06:14;12.50;;;5.20;;
51030;SDS011;37058;41.442;23.240;2022-10-18T18:08:45;53.23;;;20.17;;
51030;SDS011;37058;41.442;23.240;2022-10-18T18:11:12;44.73;;;17.17;;
51030;SDS011;37058;41.442;23.240;2022-10-18T18:13:39;38.80;;;13.33;;
51030;SDS011;37058;41.442;23.240;2022-10-18T18:16:13;53.37;;;18.07;;